createdAt,value
2023-03-26T00:02:19.266Z,68.19
2023-03-26T00:05:00.351Z,68.40
2023-03-26T00:07:42.228Z,68.52
2023-03-26T00:10:37.234Z,68.63
2023-03-26T00:13:32.244Z,68.94
2023-03-26T00:16:22.293Z,69.27
2023-03-26T00:18:57.990Z,69.45
2023-03-26T00:21:46.228Z,69.61
2023-03-26T00:24:28.424Z,69.49
2023-03-26T00:27:16.228Z,69.82
2023-03-26T00:29:58.210Z,69.84
2023-03-26T00:32:53.670Z,69.95
2023-03-26T00:35:43.277Z,70.10
2023-03-26T00:38:18.388Z,70.14
2023-03-26T00:41:12.241Z,70.32
2023-03-26T00:43:48.808Z,70.37
2023-03-26T00:46:38.417Z,70.20
2023-03-26T00:49:21.227Z,70.19
2023-03-26T00:52:16.242Z,70.28
2023-03-26T00:55:11.207Z,70.12
2023-03-26T00:57:59.249Z,70.05
2023-03-26T01:00:41.576Z,69.98
2023-03-26T01:03:29.322Z,70.09
2023-03-26T01:06:08.363Z,69.94
2023-03-26T01:08:57.222Z,69.83
2023-03-26T01:11:35.361Z,69.92
2023-03-26T01:14:26.236Z,69.93
2023-03-26T01:17:03.360Z,70.40
2023-03-26T01:20:06.225Z,70.52
2023-03-26T01:22:42.532Z,70.41
2023-03-26T01:25:32.223Z,70.40
2023-03-26T01:28:08.998Z,70.62
2023-03-26T01:31:18.220Z,70.84
2023-03-26T01:34:02.953Z,71.04
2023-03-26T01:37:00.222Z,71.05
2023-03-26T01:40:18.275Z,71.03
2023-03-26T01:43:21.362Z,71.18
2023-03-26T01:46:03.227Z,71.24
2023-03-26T01:48:45.865Z,71.31
2023-03-26T01:51:43.225Z,71.74
2023-03-26T01:54:21.352Z,71.82
2023-03-26T01:57:12.474Z,71.74
2023-03-26T02:00:19.206Z,71.89
2023-03-26T02:03:25.263Z,72.10
2023-03-26T02:06:38.253Z,71.99
2023-03-26T02:09:36.230Z,72.10
2023-03-26T02:12:25.385Z,72.18
2023-03-26T02:15:00.876Z,71.94
2023-03-26T02:17:49.464Z,71.77
2023-03-26T02:20:30.332Z,71.90
2023-03-26T02:23:18.401Z,71.88
2023-03-26T02:26:01.200Z,71.92
2023-03-26T02:28:56.213Z,71.88
2023-03-26T02:31:44.253Z,72.07
2023-03-26T02:34:19.407Z,71.90
2023-03-26T02:37:07.421Z,71.90
2023-03-26T02:39:43.524Z,72.10
2023-03-26T02:42:31.397Z,72.15
2023-03-26T02:45:13.206Z,72.21
2023-03-26T02:48:08.213Z,72.31
2023-03-26T02:51:01.193Z,72.30
2023-03-26T02:53:37.703Z,72.20
2023-03-26T02:56:25.201Z,72.31
2023-03-26T02:59:00.532Z,72.29
2023-03-26T03:01:49.213Z,71.84
2023-03-26T03:04:31.205Z,71.62
2023-03-26T03:07:21.197Z,71.53
2023-03-26T03:09:56.331Z,71.67
2023-03-26T03:12:44.186Z,71.56
2023-03-26T03:15:26.208Z,71.63
2023-03-26T03:18:21.391Z,71.31
2023-03-26T03:21:10.210Z,71.33
2023-03-26T03:23:45.411Z,71.23
2023-03-26T03:26:37.182Z,71.14
2023-03-26T03:29:12.279Z,71.19
2023-03-26T03:32:00.246Z,71.32
2023-03-26T03:34:42.629Z,71.32
2023-03-26T03:37:25.204Z,71.31
2023-03-26T03:40:15.222Z,71.25
2023-03-26T03:42:49.745Z,71.26
2023-03-26T03:45:38.187Z,71.46
2023-03-26T03:48:12.609Z,71.66
2023-03-26T03:51:00.190Z,71.89
2023-03-26T03:53:43.211Z,72.18
2023-03-26T03:56:26.296Z,72.31
2023-03-26T03:59:07.177Z,72.31
2023-03-26T04:01:57.204Z,72.47
2023-03-26T04:04:32.981Z,73.03
2023-03-26T04:07:21.178Z,73.20
2023-03-26T04:10:10.158Z,73.17
2023-03-26T04:12:58.167Z,73.19
2023-03-26T04:15:40.226Z,73.24
2023-03-26T04:18:36.195Z,73.42
2023-03-26T04:21:24.152Z,73.53
2023-03-26T04:23:58.260Z,73.32
2023-03-26T04:26:47.203Z,73.29
2023-03-26T04:29:26.432Z,73.06
2023-03-26T04:32:19.196Z,72.86
2023-03-26T04:34:54.342Z,72.63
2023-03-26T04:37:47.188Z,72.36
2023-03-26T04:40:30.776Z,72.20
2023-03-26T04:43:23.187Z,72.03
2023-03-26T04:46:05.349Z,71.91
2023-03-26T04:48:47.392Z,72.08
2023-03-26T04:51:35.162Z,72.32
2023-03-26T04:54:20.383Z,72.47
2023-03-26T04:57:12.243Z,72.59
2023-03-26T04:59:53.186Z,72.49
2023-03-26T05:02:41.408Z,72.94
2023-03-26T05:05:24.203Z,73.23
2023-03-26T05:08:06.547Z,73.35
2023-03-26T05:10:48.380Z,73.60
2023-03-26T05:13:31.318Z,73.65
2023-03-26T05:16:12.259Z,73.73
2023-03-26T05:18:54.250Z,73.61
2023-03-26T05:21:35.229Z,73.17
2023-03-26T05:24:17.536Z,72.97
2023-03-26T05:26:59.185Z,72.50
2023-03-26T05:29:41.106Z,71.72
2023-03-26T05:32:22.179Z,71.09
2023-03-26T05:35:04.054Z,70.59
2023-03-26T05:37:47.189Z,70.24
2023-03-26T05:40:28.369Z,69.81
2023-03-26T05:43:09.176Z,69.57
2023-03-26T05:45:57.192Z,69.10
2023-03-26T05:48:38.185Z,69.06
2023-03-26T05:51:23.561Z,68.52
2023-03-26T05:54:05.167Z,68.33
2023-03-26T05:56:47.185Z,67.99
2023-03-26T05:59:28.171Z,68.18
2023-03-26T06:02:16.171Z,67.99
2023-03-26T06:04:51.210Z,67.42
2023-03-26T06:07:40.166Z,67.74
2023-03-26T06:10:28.229Z,67.53
2023-03-26T06:13:16.187Z,66.90
2023-03-26T06:15:51.364Z,67.17
2023-03-26T06:18:39.303Z,67.13
2023-03-26T06:21:14.360Z,67.02
2023-03-26T06:24:02.186Z,66.63
2023-03-26T06:26:37.318Z,66.90
2023-03-26T06:29:25.177Z,66.50
2023-03-26T06:32:09.141Z,66.19
2023-03-26T06:35:04.168Z,66.25
2023-03-26T06:37:39.299Z,65.91
2023-03-26T06:40:27.203Z,65.67
2023-03-26T06:43:07.392Z,65.34
2023-03-26T06:59:21.759Z,63.75
2023-03-26T07:02:17.712Z,63.31
2023-03-26T07:05:05.703Z,62.47
2023-03-26T07:07:46.502Z,61.94
2023-03-26T07:10:34.724Z,62.30
2023-03-26T07:13:15.895Z,63.00
2023-03-26T07:15:56.725Z,63.46
2023-03-26T07:18:37.936Z,62.55
2023-03-26T07:21:19.729Z,61.35
2023-03-26T07:24:08.817Z,60.91
2023-03-26T07:27:00.726Z,61.06
2023-03-26T07:29:51.713Z,60.67
2023-03-26T07:32:35.683Z,60.38
2023-03-26T07:35:38.734Z,60.13
2023-03-26T07:38:33.217Z,59.60
2023-03-26T07:41:52.715Z,59.46
2023-03-26T07:44:48.701Z,59.92
2023-03-26T07:47:45.737Z,60.36
2023-03-26T07:50:23.194Z,61.21
2023-03-26T07:53:10.944Z,61.66
2023-03-26T07:56:14.719Z,60.10
2023-03-26T07:59:12.993Z,58.79
2023-03-26T08:02:10.704Z,57.61
2023-03-26T08:05:17.965Z,57.37
2023-03-26T08:08:27.747Z,56.14
2023-03-26T08:11:34.879Z,55.47
2023-03-26T08:14:31.724Z,55.54
2023-03-26T08:17:17.841Z,54.88
2023-03-26T08:20:37.745Z,53.82
2023-03-26T08:23:22.165Z,51.23
2023-03-26T08:26:20.722Z,51.14
2023-03-26T08:29:27.943Z,51.49
2023-03-26T08:32:20.718Z,51.65
2023-03-26T08:35:05.207Z,51.51
2023-03-26T08:37:46.774Z,50.93
2023-03-26T08:41:23.756Z,50.45
2023-03-26T08:44:30.721Z,51.48
2023-03-26T08:47:42.883Z,51.37
2023-03-26T08:50:36.709Z,51.90
2023-03-26T08:53:33.930Z,52.42
2023-03-26T08:56:30.871Z,52.48
2023-03-26T08:59:44.711Z,51.41
2023-03-26T09:02:44.860Z,51.35
2023-03-26T09:05:48.861Z,51.17
2023-03-26T09:09:18.801Z,51.04
2023-03-26T09:12:27.721Z,51.52
2023-03-26T09:15:39.715Z,51.05
2023-03-26T09:18:36.054Z,49.35
2023-03-26T09:21:49.918Z,48.79
2023-03-26T09:25:01.853Z,47.16
2023-03-26T09:28:01.252Z,47.04
2023-03-26T09:30:57.853Z,47.00
2023-03-26T09:34:06.714Z,46.14
2023-03-26T09:36:57.721Z,46.30
2023-03-26T09:40:03.710Z,45.46
2023-03-26T09:42:37.831Z,45.94
2023-03-26T09:45:43.803Z,46.08
2023-03-26T09:48:43.701Z,45.78
2023-03-26T09:51:49.041Z,45.44
2023-03-26T09:54:55.715Z,44.79
2023-03-26T09:57:51.708Z,44.82
2023-03-26T10:00:34.861Z,44.64
2023-03-26T10:03:32.877Z,44.24
2023-03-26T10:06:19.839Z,44.27
2023-03-26T10:09:27.723Z,44.50
2023-03-26T10:12:14.837Z,44.72
2023-03-26T10:15:27.702Z,45.26
2023-03-26T10:18:39.844Z,45.55
2023-03-26T10:22:04.735Z,45.17
2023-03-26T10:25:10.725Z,45.24
2023-03-26T10:28:12.862Z,44.69
2023-03-26T10:31:12.839Z,44.65
2023-03-26T10:33:58.095Z,44.58
2023-03-26T10:37:21.890Z,42.82
2023-03-26T10:40:11.498Z,42.30
2023-03-26T10:43:08.699Z,42.89
2023-03-26T10:46:11.418Z,42.61
2023-03-26T10:49:03.731Z,41.47
2023-03-26T10:52:01.773Z,41.78
2023-03-26T10:55:29.270Z,43.10
2023-03-26T10:58:25.821Z,42.13
2023-03-26T11:01:25.673Z,41.60
2023-03-26T11:04:29.659Z,41.34
2023-03-26T11:07:58.596Z,41.54
2023-03-26T11:11:07.715Z,41.99
2023-03-26T11:14:34.488Z,41.40
2023-03-26T11:17:42.793Z,41.52
2023-03-26T11:20:34.809Z,41.23
2023-03-26T11:23:27.405Z,41.84
2023-03-26T11:26:19.696Z,41.38
2023-03-26T11:29:31.838Z,42.06
2023-03-26T11:32:54.733Z,43.20
2023-03-26T11:35:39.538Z,43.77
2023-03-26T11:38:44.709Z,44.13
2023-03-26T11:41:24.947Z,44.22
2023-03-26T11:44:17.709Z,44.66
2023-03-26T11:47:00.109Z,45.00
2023-03-26T11:49:49.714Z,45.00
2023-03-26T11:52:24.601Z,45.22
2023-03-26T11:55:13.718Z,45.83
2023-03-26T11:58:12.725Z,46.24
2023-03-26T12:01:01.720Z,46.48
2023-03-26T12:03:38.396Z,46.48
2023-03-26T12:06:32.714Z,47.21
2023-03-26T12:09:07.833Z,51.98
2023-03-26T12:12:01.371Z,56.89
2023-03-26T12:14:38.844Z,58.98
2023-03-26T12:17:37.719Z,60.02
2023-03-26T12:20:32.181Z,60.97
2023-03-26T12:23:50.824Z,61.78
2023-03-26T12:26:51.033Z,61.33
2023-03-26T12:29:43.410Z,60.95
2023-03-26T12:32:29.730Z,60.55
2023-03-26T12:35:35.712Z,60.16
2023-03-26T12:38:40.869Z,60.31
2023-03-26T12:44:43.490Z,59.29
2023-03-26T12:44:54.771Z,58.13
2023-03-26T12:48:00.393Z,57.82
2023-03-26T12:50:59.738Z,57.37
2023-03-26T12:54:39.652Z,56.38
2023-03-26T12:57:51.504Z,55.76
2023-03-26T13:01:09.707Z,54.16
2023-03-26T13:04:31.703Z,54.49
2023-03-26T13:07:51.697Z,52.57
2023-03-26T13:11:03.687Z,52.26
2023-03-26T13:14:03.854Z,51.36
2023-03-26T13:17:03.269Z,51.59
2023-03-26T13:20:19.697Z,52.26
2023-03-26T13:23:30.681Z,51.17
2023-03-26T13:26:53.695Z,50.44
2023-03-26T13:30:02.725Z,50.28
2023-03-26T13:33:12.697Z,49.57
2023-03-26T13:36:23.154Z,47.35
2023-03-26T13:39:25.718Z,43.75
2023-03-26T13:42:42.693Z,43.26
2023-03-26T13:45:47.042Z,43.13
2023-03-26T13:48:36.689Z,43.90
2023-03-26T13:51:35.973Z,44.64
2023-03-26T13:54:31.696Z,43.81
2023-03-26T13:57:44.843Z,42.65
2023-03-26T14:00:42.687Z,43.52
2023-03-26T14:03:29.182Z,41.13
2023-03-26T14:06:41.216Z,40.56
2023-03-26T14:09:48.453Z,39.38
2023-03-26T14:12:45.716Z,38.75
2023-03-26T14:15:24.844Z,38.23
2023-03-26T14:18:42.720Z,36.63
2023-03-26T14:22:01.698Z,37.26
2023-03-26T14:25:15.691Z,38.23
2023-03-26T14:28:20.682Z,38.29
2023-03-26T14:31:31.882Z,38.35
2023-03-26T14:34:36.683Z,39.19
2023-03-26T14:37:27.935Z,41.01
2023-03-26T14:40:34.688Z,41.27
2023-03-26T14:43:36.722Z,42.74
2023-03-26T14:46:42.779Z,42.34
2023-03-26T14:49:30.897Z,42.09
2023-03-26T14:52:38.899Z,41.64
2023-03-26T14:55:22.098Z,42.56
2023-03-26T14:58:40.708Z,43.25
2023-03-26T15:01:40.690Z,43.46
2023-03-26T15:05:05.699Z,43.92
2023-03-26T15:08:18.889Z,43.54
2023-03-26T15:11:42.711Z,43.87
2023-03-26T15:14:57.854Z,43.88
2023-03-26T15:18:03.707Z,43.92
2023-03-26T15:21:03.854Z,44.12
2023-03-26T15:24:09.727Z,44.42
2023-03-26T15:27:15.839Z,44.03
2023-03-26T15:30:27.704Z,44.44
2023-03-26T15:33:34.180Z,44.48
2023-03-26T15:36:59.713Z,44.36
2023-03-26T15:40:09.772Z,44.36
2023-03-26T15:43:17.916Z,44.71
2023-03-26T15:46:16.101Z,44.49
2023-03-26T15:48:59.717Z,44.71
2023-03-26T15:51:49.841Z,44.18
2023-03-26T15:54:35.702Z,44.67
2023-03-26T15:58:12.885Z,45.04
2023-03-26T16:01:27.739Z,45.50
2023-03-26T16:04:33.917Z,45.88
2023-03-26T16:07:33.901Z,45.67
2023-03-26T16:10:44.694Z,46.03
2023-03-26T16:13:32.708Z,46.06
2023-03-26T16:16:16.692Z,46.32
2023-03-26T16:19:33.767Z,46.20
2023-03-26T16:22:59.106Z,46.13
2023-03-26T16:25:44.689Z,46.51
2023-03-26T16:28:45.697Z,46.97
2023-03-26T16:31:38.151Z,47.05
2023-03-26T16:34:29.553Z,46.96
2023-03-26T16:37:46.858Z,47.12
2023-03-26T16:40:24.164Z,47.51
2023-03-26T16:43:23.710Z,47.76
2023-03-26T16:46:23.106Z,47.93
2023-03-26T16:49:14.686Z,48.21
2023-03-26T16:52:03.981Z,48.49
2023-03-26T16:54:58.701Z,48.68
2023-03-26T16:57:37.339Z,48.86
2023-03-26T17:00:34.855Z,49.14
2023-03-26T17:03:51.129Z,49.39
2023-03-26T17:06:42.703Z,49.76
2023-03-26T17:09:27.068Z,50.07
2023-03-26T17:12:44.863Z,50.23
2023-03-26T17:15:32.925Z,50.38
2023-03-26T17:18:41.732Z,50.61
2023-03-26T17:21:24.910Z,50.71
2023-03-26T17:24:18.693Z,50.82
2023-03-26T17:27:14.590Z,50.98
2023-03-26T17:30:27.669Z,51.10
2023-03-26T17:33:06.160Z,51.25
2023-03-26T17:35:55.765Z,51.37
2023-03-26T17:38:30.834Z,51.48
2023-03-26T17:41:20.690Z,51.67
2023-03-26T17:43:56.815Z,51.69
2023-03-26T17:46:48.333Z,51.94
2023-03-26T17:49:36.691Z,51.98
2023-03-26T17:52:28.689Z,52.30
2023-03-26T17:55:14.446Z,52.85
2023-03-26T17:58:18.738Z,53.72
2023-03-26T18:01:19.015Z,54.91
2023-03-26T18:03:56.378Z,55.83
2023-03-26T18:07:06.746Z,56.58
2023-03-26T18:10:07.268Z,57.28
2023-03-26T18:12:55.691Z,58.15
2023-03-26T18:15:58.943Z,59.14
2023-03-26T18:18:47.117Z,59.72
2023-03-26T18:21:33.525Z,60.02
2023-03-26T18:24:21.691Z,60.22
2023-03-26T18:27:13.125Z,60.67
2023-03-26T18:30:03.708Z,61.09
2023-03-26T18:33:00.800Z,61.49
2023-03-26T18:36:02.729Z,61.80
2023-03-26T18:38:50.849Z,61.88
2023-03-26T18:41:32.664Z,61.92
2023-03-26T18:44:29.704Z,62.08
2023-03-26T18:47:16.675Z,62.12
2023-03-26T18:50:01.895Z,62.37
2023-03-26T18:52:42.682Z,62.84
2023-03-26T18:55:23.858Z,63.07
2023-03-26T18:58:04.697Z,63.13
2023-03-26T19:00:46.138Z,63.23
2023-03-26T19:03:31.017Z,63.34
2023-03-26T19:06:21.688Z,63.39
2023-03-26T19:09:30.988Z,63.52
2023-03-26T19:12:43.625Z,63.85
2023-03-26T19:15:29.572Z,63.86
2023-03-26T19:18:12.901Z,63.79
2023-03-26T19:21:03.695Z,63.78
2023-03-26T19:23:47.692Z,63.76
2023-03-26T19:26:43.785Z,63.67
2023-03-26T19:29:42.884Z,63.47
2023-03-26T19:32:29.136Z,63.33
2023-03-26T19:35:29.036Z,63.29
2023-03-26T19:38:10.667Z,63.22
2023-03-26T19:41:00.716Z,63.23
2023-03-26T19:43:48.686Z,63.37
2023-03-26T19:46:23.664Z,63.34
2023-03-26T19:49:11.713Z,63.67
2023-03-26T19:52:03.170Z,64.07
2023-03-26T19:55:01.464Z,64.59
2023-03-26T19:57:44.685Z,64.60
2023-03-26T20:00:40.675Z,64.74
2023-03-26T20:03:43.786Z,64.87
2023-03-26T20:06:20.958Z,64.68
2023-03-26T20:09:11.902Z,64.10
2023-03-26T20:11:57.226Z,63.91
2023-03-26T20:14:52.687Z,64.20
2023-03-26T20:17:41.683Z,65.14
2023-03-26T20:20:17.657Z,65.37
2023-03-26T20:23:08.720Z,65.44
2023-03-26T20:25:57.018Z,65.95
2023-03-26T20:28:53.436Z,65.91
2023-03-26T20:31:42.714Z,65.52
2023-03-26T20:34:32.687Z,65.72
2023-03-26T20:37:20.632Z,66.43
2023-03-26T20:40:02.150Z,66.32
2023-03-26T20:42:43.681Z,66.71
2023-03-26T20:45:35.668Z,67.24
2023-03-26T20:48:19.670Z,68.32
2023-03-26T20:51:08.664Z,69.03
2023-03-26T20:53:44.296Z,69.82
2023-03-26T20:56:33.751Z,70.37
2023-03-26T20:59:17.978Z,70.28
2023-03-26T21:02:00.729Z,70.55
2023-03-26T21:04:41.750Z,71.50
2023-03-26T21:07:18.511Z,71.86
2023-03-26T21:10:09.744Z,72.33
2023-03-26T21:12:48.833Z,72.67
2023-03-26T21:15:37.662Z,72.84
2023-03-26T21:18:12.775Z,72.94
2023-03-26T21:21:27.678Z,72.82
2023-03-26T21:24:07.998Z,72.65
2023-03-26T21:27:13.682Z,72.68
2023-03-26T21:29:48.815Z,72.66
2023-03-26T21:32:38.711Z,72.68
2023-03-26T21:35:21.900Z,72.67
2023-03-26T21:38:19.649Z,72.70
2023-03-26T21:41:08.696Z,72.78
2023-03-26T21:43:43.783Z,72.90
2023-03-26T21:46:31.718Z,72.74
2023-03-26T21:49:13.660Z,72.58
2023-03-26T21:52:01.692Z,72.61
2023-03-26T21:54:38.744Z,72.70
2023-03-26T21:57:44.609Z,72.88
2023-03-26T22:00:41.074Z,72.78
2023-03-26T22:04:22.653Z,72.60
2023-03-26T22:07:32.659Z,72.74
2023-03-26T22:10:08.214Z,72.92
2023-03-26T22:12:56.675Z,72.90
2023-03-26T22:15:38.714Z,72.82
2023-03-26T22:18:21.918Z,72.80
2023-03-26T22:21:11.678Z,72.90
2023-03-26T22:23:53.353Z,72.98
2023-03-26T22:26:41.668Z,72.94
2023-03-26T22:29:17.008Z,72.99
2023-03-26T22:32:04.728Z,73.07
2023-03-26T22:34:45.675Z,73.28
2023-03-26T22:37:33.814Z,73.67
2023-03-26T22:40:09.086Z,74.03
2023-03-26T22:42:56.656Z,74.32
2023-03-26T22:45:31.245Z,74.75
2023-03-26T22:48:18.670Z,75.17
2023-03-26T22:51:03.758Z,75.88
2023-03-26T22:53:51.787Z,76.38
2023-03-26T22:56:26.354Z,76.91
2023-03-26T22:59:14.686Z,77.32
2023-03-26T23:02:03.685Z,77.50
2023-03-26T23:04:45.692Z,77.64
2023-03-26T23:07:33.660Z,77.54
2023-03-26T23:10:09.384Z,77.71
2023-03-26T23:12:58.666Z,77.61
2023-03-26T23:15:33.898Z,77.50
2023-03-26T23:18:21.665Z,77.55
2023-03-26T23:21:03.817Z,77.36
2023-03-26T23:23:45.759Z,77.34
2023-03-26T23:26:49.442Z,77.27
2023-03-26T23:29:25.325Z,77.02
2023-03-26T23:32:24.296Z,76.89
2023-03-26T23:35:00.065Z,76.77
2023-03-26T23:37:48.650Z,76.77
2023-03-26T23:40:23.181Z,76.79
2023-03-26T23:43:10.741Z,76.69
2023-03-26T23:45:48.554Z,76.68
2023-03-26T23:48:39.638Z,76.56
2023-03-26T23:51:20.694Z,76.46
2023-03-26T23:54:08.772Z,76.47
2023-03-26T23:56:56.902Z,76.59
2023-03-26T23:59:32.541Z,76.47
